Accueil
METAR-TAF:

METAR-TAF

Aéroports :

Ponce, Porto Rico, États-Unis

latitude: 18-01N, longitude: 066-34W, altitude: 8 m

METAR: absent

Heure: 04:06 (08:06 UTC)

Prévision

Le bulletin a été fait il y a 2 heures et 0 minutes, à 06:06 UTC
Prévision valable du 29 à 06 UTC au 30 à 06 UTC
Vent 5 kt de direction variable
Visibilité: 10 km
Quelques nuages à une hauteur de 2500 ft
Nuages épars à une hauteur de 3500 ft
averses à proximité
A partir de 29 à 1400 UTC
Vent 12 kt de sud/sud-est
Visibilité: 10 km
Nuages épars à une hauteur de 2500 ft
Nuages épars à une hauteur de 5000 ft
A partir de 29 à 2300 UTC
Vent 5 kt de est/nord-est
Visibilité: 10 km
Quelques nuages à une hauteur de 3500 ft

TAF: TJPS 290606Z 2906/3006 VRB05KT P6SM VCSH FEW025 SCT035 FM291400 15012KT P6SM SCT025 SCT050 FM292300 07005KT P6SM FEW035 AMD NOT SKED

Observations et prévisions météorologiques de plus de 4000 aéroports (messages METAR et TAF).

Les stations disponibles sont représentées par des disques jaunes et rouges sur la carte.

Passer la souris dessus pour voir le nom de la station.

Cliquer dessus pour voir les observations et prévisions météorologiques.

Pour changer de carte: cliquez sur les boutons verts avec une croix noire pour zoomer, sur le bouton vert avec un tiret pour effectuer un zoom arrière, ou sur les flèches vertes pour les cartes adjacentes.


METAR-TAF: